Time;durP1;ratioP1;P1;durP2;ratioP2;P2;SDS_P1;SDS_P2;PMS_P1;PMS_P2;Temp;Humidity;BMP_temperature;BMP_pressure;BME280_temperature;BME280_humidity;BME280_pressure;Samples;Min_cycle;Max_cycle;Signal;HPM_P1;HPM_P2
2022/03/29 00:01:59;;;;;;;41.97;30.58;;;9.90;99.90;;;;;;5094059;28;20182;-58
2022/03/29 00:04:25;;;;;;;46.83;32.25;;;9.90;99.90;;;;;;5093893;28;20213;-58
2022/03/29 00:06:53;;;;;;;44.95;31.90;;;9.80;99.90;;;;;;5093917;28;20174;-58
2022/03/29 00:09:20;;;;;;;43.08;32.45;;;9.80;99.90;;;;;;5094039;28;20177;-58
2022/03/29 00:11:46;;;;;;;44.30;32.72;;;9.80;99.90;;;;;;5093978;28;20181;-59
2022/03/29 00:14:12;;;;;;;46.15;31.50;;;9.80;99.90;;;;;;5075866;28;20192;-58
2022/03/29 00:16:38;;;;;;;40.90;30.70;;;9.80;99.90;;;;;;5093722;28;20231;-58
2022/03/29 00:19:04;;;;;;;45.55;30.65;;;9.80;99.90;;;;;;5093670;28;20257;-58
2022/03/29 00:21:30;;;;;;;40.88;30.70;;;9.80;99.90;;;;;;5093629;28;20700;-59
2022/03/29 00:23:56;;;;;;;44.10;30.75;;;9.90;99.90;;;;;;5075533;28;20201;-58
2022/03/29 00:26:21;;;;;;;43.58;31.08;;;9.80;99.90;;;;;;5093658;28;20201;-58
2022/03/29 00:28:47;;;;;;;44.58;29.75;;;9.90;99.90;;;;;;5093572;28;20235;-59
2022/03/29 00:31:16;;;;;;;41.88;30.35;;;9.80;99.90;;;;;;5093590;28;20517;-59
2022/03/29 00:33:42;;;;;;;38.17;28.55;;;9.90;99.90;;;;;;5093755;28;20225;-58
2022/03/29 00:36:08;;;;;;;42.85;29.92;;;9.80;99.90;;;;;;5093480;28;20166;-58
2022/03/29 00:38:34;;;;;;;42.17;29.23;;;9.80;99.90;;;;;;5093548;28;20232;-58
2022/03/29 00:41:01;;;;;;;38.70;28.55;;;9.90;99.90;;;;;;5093413;28;20182;-58
2022/03/29 00:43:26;;;;;;;42.58;28.92;;;9.90;99.90;;;;;;5093234;28;20197;-59
2022/03/29 00:45:52;;;;;;;38.70;27.55;;;10.00;99.90;;;;;;5093274;28;20172;-59
2022/03/29 00:48:18;;;;;;;40.13;28.48;;;9.90;99.90;;;;;;5093441;28;20184;-59
2022/03/29 00:50:45;;;;;;;38.40;27.50;;;9.90;99.90;;;;;;5093461;28;20211;-59
2022/03/29 00:53:11;;;;;;;40.22;28.42;;;9.80;99.90;;;;;;5075345;28;20185;-59
2022/03/29 00:55:37;;;;;;;41.67;27.60;;;9.90;99.90;;;;;;5093778;28;20316;-59
2022/03/29 00:58:06;;;;;;;40.55;28.42;;;9.80;99.90;;;;;;5093206;28;20180;-59
2022/03/29 01:00:33;;;;;;;40.25;28.17;;;9.70;99.90;;;;;;5093148;28;20185;-60
2022/03/29 01:03:02;;;;;;;42.97;27.83;;;9.80;99.90;;;;;;5093228;28;20174;-60
2022/03/29 01:05:27;;;;;;;40.00;28.48;;;9.80;99.90;;;;;;5093210;28;20277;-59
2022/03/29 01:07:55;;;;;;;45.25;30.10;;;9.80;99.90;;;;;;5093470;28;20280;-60
2022/03/29 01:10:21;;;;;;;39.15;27.85;;;9.80;99.90;;;;;;5093393;28;20162;-59
2022/03/29 01:12:47;;;;;;;38.08;27.00;;;9.70;99.90;;;;;;5093039;28;20210;-59
2022/03/29 01:15:13;;;;;;;44.88;29.83;;;9.60;99.90;;;;;;5092992;28;20174;-59
2022/03/29 01:17:42;;;;;;;44.00;29.88;;;9.70;99.90;;;;;;5093159;28;20185;-59
2022/03/29 01:20:19;;;;;;;43.08;28.45;;;9.60;99.90;;;;;;5093166;28;20198;-59
2022/03/29 01:22:47;;;;;;;46.25;30.73;;;9.60;99.90;;;;;;5093067;28;20203;-59
2022/03/29 01:25:27;;;;;;;41.22;28.85;;;9.50;99.90;;;;;;5092993;28;20170;-59
2022/03/29 01:27:54;;;;;;;42.70;28.25;;;9.50;99.90;;;;;;5092953;28;20177;-59
2022/03/29 01:30:21;;;;;;;40.50;28.63;;;9.60;99.90;;;;;;5093047;28;20181;-59
2022/03/29 01:32:49;;;;;;;43.78;29.23;;;9.60;99.90;;;;;;5093405;28;20185;-59
2022/03/29 01:35:17;;;;;;;40.05;27.92;;;9.60;99.90;;;;;;5093336;28;20178;-59
2022/03/29 01:37:43;;;;;;;40.92;28.48;;;9.60;99.90;;;;;;5096765;28;20177;-59
2022/03/29 01:40:12;;;;;;;44.88;29.50;;;9.60;99.90;;;;;;5096701;28;20253;-59
2022/03/29 01:42:38;;;;;;;44.33;29.05;;;9.60;99.90;;;;;;5096950;28;20170;-59
2022/03/29 01:45:04;;;;;;;41.75;27.30;;;9.80;99.90;;;;;;5096557;28;20767;-59
2022/03/29 01:47:30;;;;;;;39.80;27.52;;;9.80;99.90;;;;;;5096703;28;20258;-59
2022/03/29 01:49:55;;;;;;;40.67;27.27;;;9.70;99.90;;;;;;5096934;28;20249;-59
2022/03/29 01:52:21;;;;;;;40.38;26.83;;;9.70;99.90;;;;;;5096527;28;20198;-59
2022/03/29 01:54:47;;;;;;;42.55;27.75;;;9.80;99.90;;;;;;5096399;28;20174;-59
2022/03/29 01:57:12;;;;;;;38.47;27.30;;;9.80;99.90;;;;;;5096564;28;20182;-59
2022/03/29 02:02:23;;;;;;;43.63;28.02;;;9.70;99.90;;;;;;5096684;28;20193;-59
2022/03/29 02:04:49;;;;;;;40.28;26.08;;;9.70;99.90;;;;;;5096532;28;20228;-59
2022/03/29 02:07:16;;;;;;;42.00;26.45;;;9.70;99.90;;;;;;5096114;28;20166;-59
2022/03/29 02:09:43;;;;;;;37.53;25.55;;;9.80;99.90;;;;;;5096692;28;20695;-59
2022/03/29 02:12:10;;;;;;;37.25;25.13;;;9.90;99.90;;;;;;5096364;28;20215;-59
2022/03/29 02:14:36;;;;;;;40.97;25.92;;;9.90;99.90;;;;;;5096092;28;20727;-59
2022/03/29 02:17:01;;;;;;;40.65;25.73;;;9.90;99.90;;;;;;5096133;28;20261;-59
2022/03/29 02:19:27;;;;;;;38.72;25.77;;;9.90;99.90;;;;;;5096103;28;20171;-59
2022/03/29 02:21:53;;;;;;;36.85;25.23;;;9.90;99.90;;;;;;5095840;28;20185;-59
2022/03/29 02:24:18;;;;;;;36.85;23.33;;;9.90;99.90;;;;;;5096125;28;20235;-59
2022/03/29 02:26:44;;;;;;;35.58;23.85;;;10.00;99.90;;;;;;5096046;28;20235;-59
2022/03/29 02:29:10;;;;;;;33.92;23.67;;;9.90;99.90;;;;;;5095971;28;20205;-59
2022/03/29 02:31:36;;;;;;;35.65;24.13;;;10.00;99.90;;;;;;5095735;28;20705;-59
2022/03/29 02:34:02;;;;;;;30.38;22.30;;;10.00;99.90;;;;;;5095660;28;20182;-59
2022/03/29 02:36:28;;;;;;;35.05;22.90;;;10.00;99.90;;;;;;5095543;28;20238;-59
2022/03/29 02:38:54;;;;;;;36.40;22.85;;;10.00;99.90;;;;;;5096160;28;20182;-59
2022/03/29 02:41:19;;;;;;;36.08;23.40;;;10.00;99.90;;;;;;5095594;28;20191;-59
2022/03/29 02:43:45;;;;;;;32.30;22.98;;;10.00;99.90;;;;;;5095477;28;20202;-59
2022/03/29 02:46:10;;;;;;;34.63;22.98;;;10.00;99.90;;;;;;5095149;28;20205;-59
2022/03/29 02:48:36;;;;;;;32.63;22.42;;;10.00;99.90;;;;;;5095379;28;20182;-59
2022/03/29 02:51:02;;;;;;;32.25;21.33;;;10.10;99.90;;;;;;5095437;28;20204;-59
2022/03/29 02:53:27;;;;;;;32.00;22.02;;;10.00;99.90;;;;;;5095909;28;20189;-59
2022/03/29 02:55:53;;;;;;;32.80;21.27;;;10.10;99.90;;;;;;5095568;28;20171;-59
2022/03/29 02:58:19;;;;;;;32.42;22.00;;;10.10;99.90;;;;;;5095285;28;20533;-59
2022/03/29 03:00:45;;;;;;;33.05;21.13;;;10.10;99.90;;;;;;5095306;28;20166;-59
2022/03/29 03:03:10;;;;;;;33.40;21.23;;;10.00;99.90;;;;;;5095121;28;20205;-59
2022/03/29 03:05:36;;;;;;;33.08;21.80;;;10.00;99.90;;;;;;5095081;28;20197;-59
2022/03/29 03:08:02;;;;;;;30.83;21.58;;;10.00;99.90;;;;;;5095305;28;20212;-59
2022/03/29 03:10:28;;;;;;;30.98;20.60;;;9.90;99.90;;;;;;5077193;28;20579;-59
2022/03/29 03:12:54;;;;;;;29.35;20.45;;;9.90;99.90;;;;;;5095071;28;20170;-59
2022/03/29 03:15:24;;;;;;;26.02;19.58;;;9.80;99.90;;;;;;5094938;28;20651;-59
2022/03/29 03:17:54;;;;;;;29.35;19.88;;;9.80;99.90;;;;;;5090244;28;20186;-59
2022/03/29 03:20:21;;;;;;;28.23;19.60;;;9.80;99.90;;;;;;5094745;28;20223;-59
2022/03/29 03:22:47;;;;;;;26.85;20.15;;;9.80;99.90;;;;;;5094913;28;20629;-59
2022/03/29 03:25:13;;;;;;;30.83;19.58;;;9.80;99.90;;;;;;5094796;28;20224;-59
2022/03/29 03:27:40;;;;;;;30.73;19.60;;;9.90;99.90;;;;;;5094793;28;20177;-59
2022/03/29 03:30:13;;;;;;;30.92;19.55;;;9.90;99.90;;;;;;5094680;28;20178;-59
2022/03/29 03:32:40;;;;;;;29.98;19.13;;;9.90;99.90;;;;;;5094592;28;20177;-59
2022/03/29 03:35:06;;;;;;;29.90;19.15;;;9.90;99.90;;;;;;5094699;28;20197;-59
2022/03/29 03:37:33;;;;;;;29.10;19.25;;;10.00;99.90;;;;;;5094643;28;20170;-59
2022/03/29 03:39:59;;;;;;;29.65;19.35;;;10.00;99.90;;;;;;5094613;28;20554;-59
2022/03/29 03:42:24;;;;;;;29.40;18.70;;;10.00;99.90;;;;;;5076322;28;20636;-59
2022/03/29 03:44:50;;;;;;;22.90;17.88;;;10.10;99.90;;;;;;5059484;28;20205;-59
2022/03/29 03:47:16;;;;;;;28.20;18.17;;;10.10;99.90;;;;;;5094247;28;20568;-59
2022/03/29 03:49:43;;;;;;;26.50;17.65;;;10.10;99.90;;;;;;5094411;28;20273;-59
2022/03/29 03:52:09;;;;;;;27.63;17.80;;;10.20;99.90;;;;;;5094649;28;20212;-59
2022/03/29 03:54:35;;;;;;;27.38;18.30;;;10.20;99.90;;;;;;5094281;28;20201;-59
2022/03/29 03:57:01;;;;;;;26.13;16.83;;;10.20;99.90;;;;;;5094273;28;20232;-59
2022/03/29 03:59:27;;;;;;;26.35;17.30;;;10.10;99.90;;;;;;5093386;28;20668;-59
2022/03/29 04:01:52;;;;;;;27.38;17.98;;;10.00;99.90;;;;;;5094033;28;20287;-59
2022/03/29 04:04:18;;;;;;;23.27;16.75;;;10.00;99.90;;;;;;5093872;28;20226;-59
2022/03/29 04:06:44;;;;;;;27.63;17.27;;;9.90;99.90;;;;;;5094103;28;20215;-59
2022/03/29 04:09:10;;;;;;;23.42;16.65;;;10.00;99.90;;;;;;5093927;28;20180;-59
2022/03/29 04:11:36;;;;;;;26.65;16.67;;;10.00;99.90;;;;;;5093948;28;20514;-59
2022/03/29 04:14:02;;;;;;;27.20;16.65;;;9.90;99.90;;;;;;5093794;28;20174;-59
2022/03/29 04:16:28;;;;;;;24.13;17.00;;;9.90;99.90;;;;;;5093740;28;20518;-59
2022/03/29 04:18:54;;;;;;;29.00;17.50;;;9.90;99.90;;;;;;5093826;28;20555;-59
2022/03/29 04:21:19;;;;;;;25.45;17.08;;;9.90;99.90;;;;;;5093667;28;20182;-59
2022/03/29 04:23:45;;;;;;;29.17;17.75;;;10.00;99.90;;;;;;5093725;28;20201;-59
2022/03/29 04:26:11;;;;;;;24.45;16.85;;;10.00;99.90;;;;;;5093614;28;20169;-59
2022/03/29 04:28:37;;;;;;;23.98;17.30;;;10.00;99.90;;;;;;5093584;28;20211;-59
2022/03/29 04:31:03;;;;;;;24.65;16.30;;;10.00;99.90;;;;;;5075332;28;20267;-59
2022/03/29 04:33:29;;;;;;;23.65;16.98;;;10.10;99.90;;;;;;5075465;28;20177;-59
2022/03/29 04:35:55;;;;;;;21.95;16.55;;;10.10;99.90;;;;;;5092880;28;20170;-59
2022/03/29 04:38:21;;;;;;;27.80;17.15;;;10.10;99.90;;;;;;5092673;28;20201;-59
2022/03/29 04:40:47;;;;;;;25.52;16.10;;;10.10;99.90;;;;;;5092818;28;20193;-59
2022/03/29 04:43:13;;;;;;;23.63;17.00;;;10.10;99.90;;;;;;5093209;28;20209;-59
2022/03/29 04:45:38;;;;;;;24.38;16.38;;;10.20;99.90;;;;;;5093299;28;20166;-59
2022/03/29 04:48:05;;;;;;;25.10;17.38;;;10.20;99.90;;;;;;5093610;28;20520;-59
2022/03/29 04:50:30;;;;;;;26.50;16.65;;;10.10;99.90;;;;;;5093930;28;20173;-60
2022/03/29 04:52:56;;;;;;;27.58;16.45;;;10.20;99.90;;;;;;5093725;28;20545;-61
2022/03/29 04:55:22;;;;;;;23.50;17.55;;;10.10;99.90;;;;;;5089120;28;20220;-61
2022/03/29 04:57:49;;;;;;;25.92;16.70;;;10.00;99.90;;;;;;5091588;28;20228;-61
2022/03/29 05:00:17;;;;;;;25.17;17.73;;;9.90;99.90;;;;;;5091418;28;20223;-61
2022/03/29 05:02:44;;;;;;;25.55;17.88;;;9.90;99.90;;;;;;5092520;28;20182;-60
2022/03/29 05:05:11;;;;;;;27.15;17.40;;;9.90;99.90;;;;;;5091898;28;20259;-61
2022/03/29 05:07:37;;;;;;;24.92;17.17;;;10.00;99.90;;;;;;5091462;28;20170;-60
2022/03/29 05:10:04;;;;;;;28.92;18.13;;;9.90;99.90;;;;;;5093560;28;20640;-60
2022/03/29 05:12:37;;;;;;;28.50;16.85;;;9.80;99.90;;;;;;5097167;28;20178;-60
2022/03/29 05:15:03;;;;;;;30.00;18.63;;;9.80;99.90;;;;;;5097519;28;20182;-59
2022/03/29 05:17:31;;;;;;;26.00;17.40;;;9.80;99.90;;;;;;5097367;28;20174;-59
2022/03/29 05:19:56;;;;;;;29.45;18.95;;;9.90;99.90;;;;;;5097226;28;20258;-59
2022/03/29 05:22:22;;;;;;;25.25;17.40;;;9.90;99.90;;;;;;5096880;28;20178;-60
2022/03/29 05:24:48;;;;;;;27.10;17.30;;;9.80;99.90;;;;;;5097032;28;20209;-60
2022/03/29 05:27:13;;;;;;;25.10;18.55;;;9.80;99.90;;;;;;5096558;28;20177;-60
2022/03/29 05:29:39;;;;;;;31.17;19.60;;;9.60;99.90;;;;;;5078665;28;20178;-60
2022/03/29 05:32:06;;;;;;;24.83;17.58;;;9.60;99.90;;;;;;5097124;28;20178;-60
2022/03/29 05:34:31;;;;;;;26.38;18.55;;;9.60;99.90;;;;;;5062181;28;20181;-60
2022/03/29 05:36:57;;;;;;;28.80;19.65;;;9.60;99.90;;;;;;5096914;28;20655;-59
2022/03/29 05:39:23;;;;;;;25.73;18.30;;;9.50;99.90;;;;;;5096784;28;20637;-60
2022/03/29 05:41:48;;;;;;;24.75;18.90;;;9.40;99.90;;;;;;5096667;28;20170;-61
2022/03/29 05:44:14;;;;;;;26.85;19.25;;;9.50;99.90;;;;;;5096892;28;20233;-60
2022/03/29 05:49:26;;;;;;;26.15;19.30;;;9.40;99.90;;;;;;5096877;28;20231;-60
2022/03/29 05:51:52;;;;;;;26.45;18.42;;;9.40;99.90;;;;;;5096611;28;20532;-60
2022/03/29 05:54:18;;;;;;;28.13;19.90;;;9.30;99.90;;;;;;5096379;28;20256;-60
2022/03/29 05:56:44;;;;;;;27.33;18.95;;;9.30;99.90;;;;;;5096668;28;20649;-60
2022/03/29 05:59:10;;;;;;;27.80;19.17;;;9.40;99.90;;;;;;5096664;28;20216;-60
2022/03/29 06:01:38;;;;;;;27.48;18.98;;;9.40;99.90;;;;;;5096415;28;20544;-60
2022/03/29 06:04:06;;;;;;;26.92;18.80;;;9.50;99.90;;;;;;5096138;28;20218;-60
2022/03/29 06:06:34;;;;;;;27.50;19.80;;;9.40;99.90;;;;;;5096310;28;20193;-60
2022/03/29 06:09:00;;;;;;;26.52;19.50;;;9.50;99.90;;;;;;5096140;28;20840;-60
2022/03/29 06:11:26;;;;;;;33.75;21.02;;;9.50;99.90;;;;;;5096093;28;20174;-60
2022/03/29 06:13:51;;;;;;;34.28;25.17;;;9.50;99.90;;;;;;5078049;28;20193;-59
2022/03/29 06:16:17;;;;;;;31.85;24.42;;;9.60;99.90;;;;;;5078062;28;20178;-60
2022/03/29 06:18:42;;;;;;;29.95;22.55;;;9.60;99.90;;;;;;5096017;28;20261;-60
2022/03/29 06:21:08;;;;;;;27.77;19.65;;;9.60;99.90;;;;;;5095359;28;20177;-60
2022/03/29 06:23:34;;;;;;;29.90;19.75;;;9.60;99.90;;;;;;5095876;28;20206;-60
2022/03/29 06:26:00;;;;;;;27.95;19.00;;;9.60;99.90;;;;;;5096130;28;20185;-59
2022/03/29 06:28:25;;;;;;;28.95;17.98;;;9.60;99.90;;;;;;5095962;28;20261;-60
2022/03/29 06:30:51;;;;;;;25.00;18.90;;;9.70;99.90;;;;;;5077897;28;20257;-60
2022/03/29 06:33:17;;;;;;;28.50;20.23;;;9.70;99.90;;;;;;5077599;28;20185;-59
2022/03/29 06:35:43;;;;;;;30.35;19.75;;;9.60;99.90;;;;;;5095754;28;20162;-60
2022/03/29 06:38:08;;;;;;;36.17;20.63;;;9.70;99.90;;;;;;5095583;28;20201;-60
2022/03/29 06:40:35;;;;;;;30.02;20.35;;;9.80;99.90;;;;;;5095862;28;20532;-60
2022/03/29 06:43:01;;;;;;;26.15;19.38;;;9.70;99.90;;;;;;5077701;28;20174;-60
2022/03/29 06:45:28;;;;;;;27.15;20.02;;;9.80;99.90;;;;;;5077634;28;20181;-60
2022/03/29 06:47:55;;;;;;;28.35;20.63;;;9.90;99.90;;;;;;5095542;28;20178;-61
2022/03/29 06:50:21;;;;;;;28.83;19.88;;;9.90;99.90;;;;;;5095331;28;20169;-60
2022/03/29 06:52:47;;;;;;;27.30;20.17;;;10.00;99.90;;;;;;5095862;28;20181;-60
2022/03/29 06:55:16;;;;;;;27.85;20.48;;;10.10;99.90;;;;;;5095516;28;20170;-60
2022/03/29 06:57:42;;;;;;;34.17;21.85;;;10.20;99.90;;;;;;5095169;28;20174;-60
2022/03/29 07:00:09;;;;;;;28.33;19.92;;;10.20;99.90;;;;;;5095340;28;20166;-60
2022/03/29 07:02:36;;;;;;;27.50;19.58;;;10.30;99.90;;;;;;5095293;28;20529;-60
2022/03/29 07:05:02;;;;;;;29.58;21.02;;;10.30;99.90;;;;;;5076737;28;20228;-60
2022/03/29 07:07:28;;;;;;;28.88;21.02;;;10.40;99.90;;;;;;5076998;28;20173;-60
2022/03/29 07:12:56;;;;;;;28.73;20.00;;;10.40;99.90;;;;;;5095334;28;20250;-60
2022/03/29 07:15:24;;;;;;;27.23;20.45;;;10.30;99.90;;;;;;5094946;28;20181;-60
2022/03/29 07:17:50;;;;;;;30.75;20.15;;;10.20;99.90;;;;;;5095129;28;20257;-60
2022/03/29 07:20:16;;;;;;;28.77;19.58;;;10.30;99.90;;;;;;5094884;28;20245;-60
2022/03/29 07:22:43;;;;;;;27.40;20.75;;;10.40;99.90;;;;;;5094853;28;20185;-60
2022/03/29 07:25:09;;;;;;;28.45;20.15;;;10.40;99.90;;;;;;5094726;28;20217;-60
2022/03/29 07:27:35;;;;;;;30.48;20.60;;;10.50;99.90;;;;;;5094658;28;20182;-60
2022/03/29 07:30:03;;;;;;;32.72;20.85;;;10.60;99.90;;;;;;5094638;28;20286;-60
2022/03/29 07:32:29;;;;;;;30.50;21.50;;;10.60;99.90;;;;;;5093941;28;20178;-60
2022/03/29 07:34:55;;;;;;;35.80;21.90;;;10.70;99.90;;;;;;5093946;28;20185;-60
2022/03/29 07:37:22;;;;;;;34.05;22.23;;;10.70;99.90;;;;;;5094577;28;20196;-60
2022/03/29 07:39:53;;;;;;;33.70;21.35;;;10.80;99.90;;;;;;5094593;28;20174;-60
2022/03/29 07:42:22;;;;;;;28.42;21.10;;;10.90;99.90;;;;;;5094544;28;20166;-60
2022/03/29 07:44:50;;;;;;;27.88;20.77;;;11.00;99.90;;;;;;5094199;28;20560;-61
2022/03/29 07:47:19;;;;;;;30.52;22.25;;;11.00;99.90;;;;;;5094586;28;20170;-60
2022/03/29 07:49:46;;;;;;;32.35;23.02;;;11.00;99.90;;;;;;5094347;28;20166;-60
2022/03/29 07:52:13;;;;;;;32.88;23.10;;;11.10;99.90;;;;;;5094341;28;20178;-60
2022/03/29 07:54:39;;;;;;;32.25;22.80;;;11.10;99.90;;;;;;5094257;28;20579;-60
2022/03/29 07:57:08;;;;;;;30.10;21.98;;;11.20;99.90;;;;;;5094146;28;20174;-60
2022/03/29 07:59:37;;;;;;;28.58;21.38;;;11.20;99.90;;;;;;5094352;28;20189;-60
2022/03/29 08:02:06;;;;;;;31.70;21.02;;;11.10;99.90;;;;;;5076546;28;20689;-60
2022/03/29 08:04:33;;;;;;;31.83;22.35;;;11.20;99.90;;;;;;5093856;28;20221;-60
2022/03/29 08:06:59;;;;;;;30.08;22.60;;;11.20;99.90;;;;;;5093967;28;20169;-60
2022/03/29 08:09:29;;;;;;;30.85;22.27;;;11.30;99.90;;;;;;5093945;28;20575;-60
2022/03/29 08:11:55;;;;;;;30.85;21.45;;;11.40;99.90;;;;;;5093795;28;20170;-60
2022/03/29 08:14:22;;;;;;;35.90;23.02;;;11.50;99.90;;;;;;5093784;28;20182;-60
2022/03/29 08:16:48;;;;;;;31.27;22.75;;;11.60;99.90;;;;;;5075781;28;20174;-60
2022/03/29 08:19:15;;;;;;;33.28;21.00;;;11.70;99.90;;;;;;5076047;28;20649;-59
2022/03/29 08:21:50;;;;;;;30.70;21.08;;;11.60;99.90;;;;;;5093648;28;20166;-60
2022/03/29 08:24:17;;;;;;;29.65;20.02;;;11.70;99.90;;;;;;5093528;28;20243;-60
2022/03/29 08:26:44;;;;;;;34.65;21.23;;;11.80;99.90;;;;;;5093803;28;20170;-60
2022/03/29 08:29:11;;;;;;;29.48;21.98;;;11.80;99.90;;;;;;5093656;28;20188;-59
2022/03/29 08:31:37;;;;;;;33.67;24.88;;;11.80;99.90;;;;;;5093604;28;20186;-60
2022/03/29 08:34:03;;;;;;;32.13;22.77;;;11.80;99.90;;;;;;5093548;28;20526;-60
2022/03/29 08:36:28;;;;;;;33.28;22.88;;;11.90;99.90;;;;;;5093483;28;20253;-60
2022/03/29 08:38:54;;;;;;;32.97;21.42;;;11.80;99.90;;;;;;5075226;28;20169;-60
2022/03/29 08:41:22;;;;;;;32.25;22.90;;;11.80;99.90;;;;;;5093648;28;20574;-60
2022/03/29 08:43:48;;;;;;;31.02;22.35;;;11.80;99.90;;;;;;5093371;28;20680;-59
2022/03/29 08:46:14;;;;;;;34.03;22.08;;;11.90;99.90;;;;;;5093150;28;20188;-60
2022/03/29 08:48:43;;;;;;;32.83;22.65;;;12.00;99.90;;;;;;5093313;28;20253;-60
2022/03/29 08:51:10;;;;;;;32.72;24.20;;;12.10;99.90;;;;;;5093269;28;20169;-60
2022/03/29 08:53:36;;;;;;;32.97;23.25;;;12.10;99.90;;;;;;5093491;28;20177;-60
2022/03/29 08:56:01;;;;;;;34.90;22.95;;;12.20;99.90;;;;;;5094040;28;20182;-60
2022/03/29 08:58:27;;;;;;;35.28;22.73;;;12.50;99.90;;;;;;5093313;28;20184;-60
2022/03/29 09:00:53;;;;;;;32.33;23.98;;;12.60;99.90;;;;;;5093246;28;20180;-60
2022/03/29 09:03:19;;;;;;;34.33;24.02;;;12.60;99.90;;;;;;5093213;28;20162;-59
2022/03/29 09:05:48;;;;;;;32.05;22.55;;;12.50;99.90;;;;;;5075133;28;20198;-60
2022/03/29 09:08:14;;;;;;;34.08;23.58;;;12.60;99.90;;;;;;5092979;28;20182;-60
2022/03/29 09:10:49;;;;;;;37.47;25.88;;;12.70;99.90;;;;;;5093287;28;20559;-60
2022/03/29 09:13:24;;;;;;;32.22;24.17;;;12.80;99.90;;;;;;5093233;28;20176;-60
2022/03/29 09:15:51;;;;;;;33.13;24.40;;;12.80;99.90;;;;;;5093233;28;20643;-60
2022/03/29 09:18:17;;;;;;;31.00;23.90;;;12.70;99.90;;;;;;5093275;28;20283;-60
2022/03/29 09:20:45;;;;;;;36.33;25.67;;;12.50;99.90;;;;;;5092859;28;20620;-60
2022/03/29 09:23:13;;;;;;;36.50;25.67;;;12.50;99.90;;;;;;5093026;28;20648;-60
2022/03/29 09:25:47;;;;;;;32.08;25.25;;;12.40;99.90;;;;;;5093011;28;20283;-60
2022/03/29 09:28:18;;;;;;;37.33;26.63;;;12.50;99.90;;;;;;5093075;28;20166;-60
2022/03/29 09:30:46;;;;;;;32.42;24.80;;;12.50;99.90;;;;;;5092938;28;20174;-60
2022/03/29 09:33:14;;;;;;;35.25;26.90;;;12.30;99.90;;;;;;5093013;28;20259;-60
2022/03/29 09:35:58;;;;;;;33.75;26.48;;;12.30;99.90;;;;;;5092962;28;20185;-60
2022/03/29 09:38:27;;;;;;;35.35;26.70;;;12.50;99.90;;;;;;5093190;28;20193;-60
2022/03/29 09:40:55;;;;;;;35.80;25.55;;;12.80;99.90;;;;;;5092658;28;20178;-60
2022/03/29 09:43:24;;;;;;;33.83;25.08;;;12.80;99.90;;;;;;5092587;28;20178;-60
2022/03/29 09:45:52;;;;;;;34.97;26.13;;;13.00;99.90;;;;;;5093026;28;20573;-60
2022/03/29 09:48:32;;;;;;;31.35;25.40;;;13.20;99.90;;;;;;5092658;28;20230;-60
2022/03/29 09:51:15;;;;;;;33.38;26.08;;;13.40;99.90;;;;;;5092861;28;20189;-60
2022/03/29 09:54:01;;;;;;;33.67;26.52;;;13.50;99.90;;;;;;5074650;28;20536;-60
2022/03/29 09:56:30;;;;;;;33.67;25.75;;;13.60;99.90;;;;;;5075622;28;20170;-60
2022/03/29 09:59:10;;;;;;;36.67;26.40;;;13.50;99.90;;;;;;5096524;28;20174;-60
2022/03/29 10:01:51;;;;;;;36.55;26.15;;;13.50;99.90;;;;;;5096410;28;20177;-60
2022/03/29 10:04:18;;;;;;;35.03;26.45;;;13.70;99.90;;;;;;5077509;28;20218;-60
2022/03/29 10:06:46;;;;;;;38.17;26.83;;;13.70;99.90;;;;;;5096457;28;20177;-60
2022/03/29 10:09:27;;;;;;;35.70;26.40;;;14.10;99.90;;;;;;5096329;28;20174;-60
2022/03/29 10:11:58;;;;;;;39.08;27.20;;;14.20;99.90;;;;;;5096366;28;20185;-60
2022/03/29 10:14:27;;;;;;;35.05;26.55;;;14.50;99.90;;;;;;5096191;28;20648;-60
2022/03/29 10:16:54;;;;;;;37.97;25.85;;;14.40;99.90;;;;;;5095972;28;20760;-60
2022/03/29 10:19:21;;;;;;;32.33;25.58;;;14.40;99.90;;;;;;5096231;28;20531;-60
2022/03/29 10:21:47;;;;;;;37.47;26.80;;;14.00;99.90;;;;;;5096431;28;20170;-60
2022/03/29 10:24:14;;;;;;;32.20;25.75;;;14.00;99.90;;;;;;5077809;28;20252;-60
2022/03/29 10:26:45;;;;;;;34.60;26.33;;;14.10;99.90;;;;;;5095923;28;20605;-60
2022/03/29 10:29:11;;;;;;;34.92;26.48;;;14.00;99.90;;;;;;5095867;28;20182;-60
2022/03/29 10:31:54;;;;;;;35.88;24.30;;;14.00;99.90;;;;;;5096008;28;20628;-60
2022/03/29 10:34:22;;;;;;;34.45;24.30;;;14.00;99.90;;;;;;5096076;28;20209;-60
2022/03/29 10:37:09;;;;;;;35.53;26.80;;;13.80;99.90;;;;;;5095750;28;20212;-60
2022/03/29 10:39:51;;;;;;;32.90;24.60;;;13.80;99.90;;;;;;5095651;28;20173;-60
2022/03/29 10:42:41;;;;;;;36.85;24.80;;;13.70;99.90;;;;;;5095911;28;20216;-60
2022/03/29 10:45:27;;;;;;;37.13;25.83;;;13.70;99.90;;;;;;5095880;28;20209;-60
2022/03/29 10:48:06;;;;;;;35.72;26.23;;;13.80;99.90;;;;;;5095529;28;20189;-60
2022/03/29 10:50:52;;;;;;;36.90;25.88;;;13.70;99.90;;;;;;5095739;28;20548;-60
2022/03/29 10:53:47;;;;;;;36.90;26.25;;;13.90;99.90;;;;;;5095678;28;20185;-60
2022/03/29 10:56:15;;;;;;;35.50;24.85;;;14.00;99.90;;;;;;5094318;28;20706;-60
2022/03/29 10:59:05;;;;;;;42.13;26.17;;;14.00;99.90;;;;;;5095398;28;20173;-60
2022/03/29 11:01:32;;;;;;;39.45;26.52;;;14.30;99.90;;;;;;5095433;28;20166;-60
2022/03/29 11:04:00;;;;;;;33.90;25.50;;;14.40;99.90;;;;;;5095201;28;20232;-59
2022/03/29 11:06:26;;;;;;;36.55;26.58;;;14.30;99.90;;;;;;5095161;28;20260;-60
2022/03/29 11:09:05;;;;;;;32.97;25.42;;;14.30;99.90;;;;;;5094824;28;20260;-60
2022/03/29 11:11:43;;;;;;;34.50;25.08;;;14.40;99.90;;;;;;5095235;28;20183;-60
2022/03/29 11:14:27;;;;;;;36.08;25.27;;;14.50;99.90;;;;;;5095160;28;20166;-60
2022/03/29 11:16:53;;;;;;;38.97;27.08;;;14.60;99.90;;;;;;5094892;28;20166;-60
2022/03/29 11:19:59;;;;;;;34.30;26.40;;;14.70;99.90;;;;;;5094795;28;20269;-60
2022/03/29 11:22:32;;;;;;;35.67;26.45;;;14.90;99.90;;;;;;4993110;28;20687;-60
2022/03/29 11:25:05;;;;;;;34.97;26.85;;;14.80;99.90;;;;;;4993053;28;20212;-60
2022/03/29 11:27:32;;;;;;;37.85;27.27;;;14.70;99.90;;;;;;5051702;28;20698;-60
2022/03/29 11:30:00;;;;;;;37.28;26.95;;;14.60;99.90;;;;;;5094896;28;20263;-60
2022/03/29 11:32:26;;;;;;;37.40;25.05;;;14.70;99.90;;;;;;5094402;28;20178;-60
2022/03/29 11:34:57;;;;;;;34.67;25.50;;;14.60;99.90;;;;;;5094997;28;20178;-60
2022/03/29 11:37:29;;;;;;;35.63;26.00;;;14.50;99.90;;;;;;5094998;28;20169;-60
2022/03/29 11:39:57;;;;;;;36.63;27.10;;;14.50;99.90;;;;;;5094452;28;20253;-60
2022/03/29 11:42:23;;;;;;;39.42;27.55;;;14.50;99.90;;;;;;5094329;28;20184;-60
2022/03/29 11:44:49;;;;;;;36.17;26.95;;;14.60;99.90;;;;;;5094467;28;20209;-60
2022/03/29 11:47:15;;;;;;;34.88;26.92;;;14.80;99.90;;;;;;5094478;28;20213;-60
2022/03/29 11:49:48;;;;;;;35.75;27.15;;;14.80;99.90;;;;;;5094425;28;20640;-60
2022/03/29 11:52:17;;;;;;;37.38;27.15;;;14.90;99.90;;;;;;5094284;28;20320;-60
2022/03/29 11:54:48;;;;;;;36.80;26.95;;;14.90;99.90;;;;;;5094080;28;20636;-60
2022/03/29 11:57:16;;;;;;;36.40;28.30;;;14.50;99.90;;;;;;5094311;28;20253;-60
2022/03/29 11:59:42;;;;;;;39.10;27.83;;;14.50;99.90;;;;;;5094356;28;20219;-61
2022/03/29 12:02:08;;;;;;;33.67;27.67;;;14.40;99.90;;;;;;5094072;28;20644;-60
2022/03/29 12:04:35;;;;;;;37.70;28.48;;;14.50;99.90;;;;;;5075892;28;20202;-61
2022/03/29 12:07:02;;;;;;;34.83;27.63;;;14.40;99.90;;;;;;5094322;28;20182;-60
2022/03/29 12:09:27;;;;;;;36.90;27.80;;;14.30;99.90;;;;;;5093874;28;20170;-60
2022/03/29 12:11:55;;;;;;;33.92;26.45;;;14.30;99.90;;;;;;5076161;28;20574;-60
2022/03/29 12:14:22;;;;;;;38.97;28.17;;;14.40;99.90;;;;;;5093994;28;20529;-60
2022/03/29 12:16:59;;;;;;;35.83;28.38;;;14.30;99.90;;;;;;5075865;28;20246;-60
2022/03/29 12:19:27;;;;;;;36.85;28.48;;;14.40;99.90;;;;;;5093362;28;20177;-60
2022/03/29 12:22:02;;;;;;;37.67;29.55;;;14.40;99.90;;;;;;5093692;28;20251;-60
2022/03/29 12:24:33;;;;;;;39.50;29.10;;;14.50;99.90;;;;;;5093547;28;20282;-60
2022/03/29 12:27:06;;;;;;;40.17;28.88;;;14.50;99.90;;;;;;5093651;28;20629;-60
2022/03/29 12:29:38;;;;;;;40.28;29.23;;;14.60;99.90;;;;;;5093624;28;20166;-60
2022/03/29 12:32:05;;;;;;;38.50;28.52;;;14.70;99.90;;;;;;5093407;28;20172;-60
2022/03/29 12:34:33;;;;;;;35.45;28.50;;;14.60;99.90;;;;;;5093921;28;20165;-60
2022/03/29 12:37:01;;;;;;;43.83;32.75;;;14.70;99.90;;;;;;5093710;28;20172;-60
2022/03/29 12:39:39;;;;;;;43.75;32.38;;;14.80;99.90;;;;;;5093283;28;20170;-60
2022/03/29 12:42:10;;;;;;;37.80;28.25;;;14.90;99.90;;;;;;5093436;28;20169;-60
2022/03/29 12:44:46;;;;;;;38.25;28.10;;;14.90;99.90;;;;;;5093394;28;20198;-60